Time;durP1;ratioP1;P1;durP2;ratioP2;P2;SDS_P1;SDS_P2;PMS_P1;PMS_P2;Temp;Humidity;BMP_temperature;BMP_pressure;BME280_temperature;BME280_humidity;BME280_pressure;Samples;Min_cycle;Max_cycle;Signal;HPM_P1;HPM_P2
2023/08/26 00:01:24;;;;;;;6.55;5.57;;;27.50;99.90;;;;;;6233532;28;89105;-68
2023/08/26 00:04:26;;;;;;;6.60;5.90;;;27.40;99.90;;;;;;6232740;28;89980;-69
2023/08/26 00:07:29;;;;;;;6.65;6.05;;;27.40;99.90;;;;;;6241859;28;89096;-68
2023/08/26 00:10:31;;;;;;;6.43;5.40;;;27.40;99.90;;;;;;6243971;27;89076;-69
2023/08/26 00:13:33;;;;;;;6.57;5.38;;;27.40;99.90;;;;;;6236679;28;89377;-68
2023/08/26 00:16:35;;;;;;;6.38;5.78;;;27.40;99.90;;;;;;6241241;28;87861;-68
2023/08/26 00:19:37;;;;;;;6.03;5.35;;;27.40;99.90;;;;;;6239623;28;89139;-68
2023/08/26 00:22:40;;;;;;;7.20;5.03;;;27.40;99.90;;;;;;6242564;28;89385;-69
2023/08/26 00:25:42;;;;;;;6.35;5.40;;;27.40;99.90;;;;;;6247316;28;88261;-68
2023/08/26 00:28:44;;;;;;;6.03;5.38;;;27.40;99.90;;;;;;6241121;28;89636;-68
2023/08/26 00:31:46;;;;;;;5.90;5.28;;;27.40;99.90;;;;;;6232471;28;89124;-68
2023/08/26 00:34:48;;;;;;;5.90;5.40;;;27.40;99.90;;;;;;6230721;28;90132;-68
2023/08/26 00:37:52;;;;;;;7.00;6.40;;;27.40;99.90;;;;;;6238084;28;89373;-68
2023/08/26 00:40:54;;;;;;;6.65;5.88;;;27.40;99.90;;;;;;6232783;28;89282;-68
2023/08/26 00:43:56;;;;;;;5.40;5.00;;;27.40;99.90;;;;;;6252432;28;88999;-68
2023/08/26 00:46:59;;;;;;;6.07;5.47;;;27.40;99.90;;;;;;6242884;27;87955;-68
2023/08/26 00:50:01;;;;;;;5.38;4.88;;;27.40;99.90;;;;;;6238730;28;89015;-68
2023/08/26 00:53:05;;;;;;;6.57;5.97;;;27.40;99.90;;;;;;6232174;28;89140;-67
2023/08/26 00:56:07;;;;;;;5.70;5.20;;;27.40;99.90;;;;;;6237246;28;87281;-68
2023/08/26 00:59:09;;;;;;;6.05;5.53;;;27.40;99.90;;;;;;6242797;28;89300;-68
2023/08/26 01:02:12;;;;;;;5.85;5.32;;;27.40;99.90;;;;;;6231892;28;89027;-68
2023/08/26 01:05:14;;;;;;;6.70;6.10;;;27.40;99.90;;;;;;6232689;28;90360;-68
2023/08/26 01:08:18;;;;;;;6.90;6.20;;;27.40;99.90;;;;;;6232686;28;89128;-68
2023/08/26 01:11:29;;;;;;;6.30;5.75;;;27.40;99.90;;;;;;6231564;28;89109;-68
2023/08/26 01:14:35;;;;;;;6.07;5.47;;;27.30;99.90;;;;;;6232814;28;89007;-68
2023/08/26 01:17:37;;;;;;;6.43;5.22;;;27.30;99.90;;;;;;6235971;28;89091;-68
2023/08/26 01:20:39;;;;;;;5.40;5.00;;;27.30;99.90;;;;;;6235915;28;89141;-68
2023/08/26 01:23:44;;;;;;;6.00;5.40;;;27.30;99.90;;;;;;6243414;27;90080;-68
2023/08/26 01:26:46;;;;;;;5.75;5.25;;;27.30;99.90;;;;;;6247352;28;88220;-68
2023/08/26 01:29:48;;;;;;;6.65;6.03;;;27.30;99.90;;;;;;6245494;28;87914;-68
2023/08/26 01:32:55;;;;;;;6.45;5.63;;;27.30;99.90;;;;;;6245799;28;89059;-68
2023/08/26 01:36:01;;;;;;;5.45;4.95;;;27.30;99.90;;;;;;6234555;28;90010;-68
2023/08/26 01:39:05;;;;;;;6.82;5.95;;;27.30;99.90;;;;;;6235831;28;89330;-68
2023/08/26 01:42:09;;;;;;;8.07;6.35;;;27.30;99.90;;;;;;6242570;27;89120;-68
2023/08/26 01:45:12;;;;;;;6.05;5.50;;;27.30;99.90;;;;;;6234011;28;89175;-68
2023/08/26 01:48:14;;;;;;;6.00;5.50;;;27.30;99.90;;;;;;6240321;28;88011;-68
2023/08/26 01:51:17;;;;;;;5.72;5.22;;;27.30;99.90;;;;;;6245285;28;89045;-68
2023/08/26 01:54:20;;;;;;;5.78;5.00;;;27.30;99.90;;;;;;6239555;28;89103;-68
2023/08/26 01:57:22;;;;;;;6.15;5.65;;;27.20;99.90;;;;;;6244171;28;88607;-68
2023/08/26 02:00:24;;;;;;;5.07;4.65;;;27.20;99.90;;;;;;6237874;27;89083;-68
2023/08/26 02:03:26;;;;;;;5.55;5.05;;;27.20;99.90;;;;;;6241097;28;89021;-68
2023/08/26 02:06:28;;;;;;;5.55;5.00;;;27.20;99.90;;;;;;6240889;28;90162;-68
2023/08/26 02:09:33;;;;;;;7.40;6.70;;;27.20;99.90;;;;;;6226831;28;89588;-68
2023/08/26 02:12:35;;;;;;;6.82;6.10;;;27.20;99.90;;;;;;6234180;27;89058;-69
2023/08/26 02:15:37;;;;;;;6.60;5.57;;;27.20;99.90;;;;;;6238281;28;89325;-68
2023/08/26 02:18:39;;;;;;;5.70;5.05;;;27.20;99.90;;;;;;6241378;28;89047;-69
2023/08/26 02:21:41;;;;;;;6.43;5.75;;;27.20;99.90;;;;;;6243903;28;89072;-68
2023/08/26 02:24:44;;;;;;;5.80;5.25;;;27.20;99.90;;;;;;6233925;28;87813;-68
2023/08/26 02:27:46;;;;;;;5.82;4.93;;;27.20;99.90;;;;;;6245856;28;87292;-68
2023/08/26 02:30:48;;;;;;;5.18;4.60;;;27.20;99.90;;;;;;6247278;28;88875;-68
2023/08/26 02:33:50;;;;;;;6.18;5.07;;;27.20;99.90;;;;;;6234669;28;89316;-69
2023/08/26 02:36:52;;;;;;;5.00;4.60;;;27.20;99.90;;;;;;6234706;28;88920;-68
2023/08/26 02:39:56;;;;;;;5.90;5.03;;;27.20;99.90;;;;;;6245487;28;89192;-69
2023/08/26 02:42:58;;;;;;;5.60;4.90;;;27.20;99.90;;;;;;6244867;28;88085;-69
2023/08/26 02:46:00;;;;;;;5.68;5.00;;;27.20;99.90;;;;;;6237992;28;89076;-68
2023/08/26 02:49:02;;;;;;;5.63;5.05;;;27.10;99.90;;;;;;6239768;28;89091;-68
2023/08/26 02:52:04;;;;;;;6.53;5.60;;;27.20;99.90;;;;;;6231432;28;88976;-68
2023/08/26 02:55:09;;;;;;;6.18;5.05;;;27.10;99.90;;;;;;6233942;28;89049;-69
2023/08/26 02:58:11;;;;;;;5.57;5.07;;;27.10;99.90;;;;;;6231482;28;88245;-68
2023/08/26 03:01:16;;;;;;;5.30;4.80;;;27.10;99.90;;;;;;6246609;28;89330;-68
2023/08/26 03:04:18;;;;;;;5.10;4.60;;;27.10;99.90;;;;;;6230643;28;89408;-69
2023/08/26 03:07:20;;;;;;;5.93;4.70;;;27.10;99.90;;;;;;6239368;28;89964;-68
2023/08/26 03:10:23;;;;;;;5.30;4.80;;;27.10;99.90;;;;;;6231724;28;88964;-69
2023/08/26 03:13:25;;;;;;;5.30;4.80;;;27.10;99.90;;;;;;6234572;28;89022;-68
2023/08/26 03:16:27;;;;;;;5.82;5.03;;;27.10;99.90;;;;;;6246853;28;89369;-68
2023/08/26 03:19:29;;;;;;;7.18;5.28;;;27.10;99.90;;;;;;6241092;28;89092;-69
2023/08/26 03:22:31;;;;;;;5.57;5.07;;;27.10;99.90;;;;;;6245743;28;89247;-68
2023/08/26 03:25:38;;;;;;;6.40;5.25;;;27.10;99.90;;;;;;6234501;28;89181;-68
2023/08/26 03:28:40;;;;;;;5.95;5.18;;;27.10;99.90;;;;;;6243172;28;88305;-68
2023/08/26 03:31:42;;;;;;;6.60;4.90;;;27.10;99.90;;;;;;6235466;28;88954;-68
2023/08/26 03:34:44;;;;;;;5.63;4.93;;;27.10;99.90;;;;;;6234875;28;89092;-68
2023/08/26 03:37:46;;;;;;;5.50;4.90;;;27.10;99.90;;;;;;6242837;28;89975;-67
2023/08/26 03:40:50;;;;;;;6.53;5.32;;;27.10;99.90;;;;;;6234721;28;89478;-68
2023/08/26 03:43:52;;;;;;;5.18;4.68;;;27.10;99.90;;;;;;6243195;28;89101;-68
2023/08/26 03:46:54;;;;;;;6.25;5.65;;;27.00;99.90;;;;;;6238591;28;89063;-68
2023/08/26 03:49:56;;;;;;;5.30;4.80;;;27.10;99.90;;;;;;6246116;27;89132;-68
2023/08/26 03:52:58;;;;;;;5.00;4.60;;;27.10;99.90;;;;;;6240396;28;89383;-68
2023/08/26 03:56:02;;;;;;;5.07;4.57;;;27.00;99.90;;;;;;6244825;28;89089;-68
2023/08/26 03:59:04;;;;;;;5.60;4.78;;;27.10;99.90;;;;;;6246241;28;88300;-68
2023/08/26 04:02:06;;;;;;;5.10;4.70;;;27.00;99.90;;;;;;6241757;28;89007;-68
2023/08/26 04:05:08;;;;;;;5.80;4.60;;;27.00;99.90;;;;;;6241314;28;89024;-68
2023/08/26 04:08:10;;;;;;;6.13;4.97;;;27.00;99.90;;;;;;6242124;28;89988;-68
2023/08/26 04:11:15;;;;;;;5.88;5.15;;;27.00;99.90;;;;;;6228900;28;89172;-68
2023/08/26 04:14:17;;;;;;;5.60;5.10;;;27.00;99.90;;;;;;6245086;28;89133;-68
2023/08/26 04:17:19;;;;;;;5.43;4.65;;;27.00;99.90;;;;;;6244775;27;89075;-68
2023/08/26 04:20:21;;;;;;;5.80;5.03;;;27.00;99.90;;;;;;6232948;28;89906;-68
2023/08/26 04:23:23;;;;;;;6.32;5.28;;;27.00;99.90;;;;;;6235975;28;89229;-68
2023/08/26 04:26:26;;;;;;;5.95;5.32;;;27.00;99.90;;;;;;6243628;28;89330;-68
2023/08/26 04:29:28;;;;;;;5.63;4.88;;;27.00;99.90;;;;;;6239405;28;88628;-68
2023/08/26 04:32:30;;;;;;;5.35;4.85;;;27.00;99.90;;;;;;6237111;27;89136;-68
2023/08/26 04:35:33;;;;;;;5.00;4.50;;;27.00;99.90;;;;;;6245301;28;89194;-68
2023/08/26 04:38:35;;;;;;;5.93;4.90;;;27.00;99.90;;;;;;6234854;28;89894;-68
2023/08/26 04:41:38;;;;;;;6.55;4.95;;;26.90;99.90;;;;;;6230588;28;89171;-68
2023/08/26 04:44:41;;;;;;;6.07;4.88;;;26.90;99.90;;;;;;6231192;28;89078;-68
2023/08/26 04:47:43;;;;;;;4.93;4.43;;;26.90;99.90;;;;;;6238482;28;89086;-68
2023/08/26 04:50:45;;;;;;;5.80;4.55;;;26.90;99.90;;;;;;6244618;28;88651;-68
2023/08/26 04:53:47;;;;;;;5.10;4.60;;;26.90;99.90;;;;;;6239043;28;89062;-68
2023/08/26 04:56:50;;;;;;;4.93;4.53;;;26.90;99.90;;;;;;6233258;28;89104;-68
2023/08/26 04:59:52;;;;;;;5.10;4.47;;;26.90;99.90;;;;;;6235006;27;88330;-68
2023/08/26 05:02:54;;;;;;;5.20;4.70;;;26.90;99.90;;;;;;6244148;27;88964;-68
2023/08/26 05:05:57;;;;;;;4.60;4.20;;;26.90;99.90;;;;;;6238464;28;89297;-68
2023/08/26 05:08:59;;;;;;;6.45;4.70;;;26.90;99.90;;;;;;6237423;28;89905;-68
2023/08/26 05:12:03;;;;;;;5.47;4.50;;;26.90;99.90;;;;;;6234025;28;89045;-68
2023/08/26 05:15:06;;;;;;;5.32;4.35;;;26.90;99.90;;;;;;6236337;28;87983;-68
2023/08/26 05:18:08;;;;;;;5.22;4.72;;;26.90;99.90;;;;;;6232842;28;89039;-68
2023/08/26 05:21:10;;;;;;;6.97;4.55;;;26.90;99.90;;;;;;6232620;28;89131;-68
2023/08/26 05:24:12;;;;;;;4.80;4.20;;;26.90;99.90;;;;;;6234356;28;89093;-68
2023/08/26 05:27:16;;;;;;;5.45;4.00;;;26.90;99.90;;;;;;6249593;28;87954;-68
2023/08/26 05:30:18;;;;;;;5.82;4.60;;;26.90;99.90;;;;;;6243609;27;88337;-67
2023/08/26 05:33:21;;;;;;;5.10;4.70;;;26.80;99.90;;;;;;6254278;28;89025;-68
2023/08/26 05:36:24;;;;;;;5.25;4.75;;;26.80;99.90;;;;;;6248317;28;89075;-68
2023/08/26 05:39:26;;;;;;;6.00;5.10;;;26.80;99.90;;;;;;6235667;28;90090;-67
2023/08/26 05:42:30;;;;;;;4.90;4.38;;;26.80;99.90;;;;;;6254793;28;89107;-67
2023/08/26 05:45:33;;;;;;;7.03;4.88;;;26.80;99.90;;;;;;6234777;28;89423;-68
2023/08/26 05:48:35;;;;;;;5.82;4.78;;;26.70;99.90;;;;;;6238528;27;89041;-68
2023/08/26 05:51:37;;;;;;;6.05;4.90;;;26.70;99.90;;;;;;6245142;28;89021;-67
2023/08/26 05:54:39;;;;;;;5.45;4.53;;;26.70;99.90;;;;;;6239376;27;87935;-68
2023/08/26 05:57:43;;;;;;;5.53;4.38;;;26.70;99.90;;;;;;6243020;28;88093;-68
2023/08/26 06:00:45;;;;;;;5.00;4.50;;;26.70;99.90;;;;;;6239905;28;88290;-68
2023/08/26 06:03:47;;;;;;;4.72;4.32;;;26.70;99.90;;;;;;6246979;28;89176;-68
2023/08/26 06:06:49;;;;;;;5.45;4.95;;;26.70;99.90;;;;;;6244892;28;88968;-68
2023/08/26 06:09:51;;;;;;;4.90;4.50;;;26.70;99.90;;;;;;6245045;28;89916;-67
2023/08/26 06:12:54;;;;;;;5.15;4.40;;;26.70;99.90;;;;;;6233972;28;89100;-68
2023/08/26 06:15:56;;;;;;;4.57;3.95;;;26.70;99.90;;;;;;6241268;28;89180;-67
2023/08/26 06:18:58;;;;;;;5.18;4.13;;;26.70;99.90;;;;;;6246703;27;89078;-67
2023/08/26 06:22:00;;;;;;;4.80;4.40;;;26.70;99.90;;;;;;6252597;28;89130;-68
2023/08/26 06:25:02;;;;;;;4.72;4.07;;;26.70;99.90;;;;;;6244910;28;89193;-68
2023/08/26 06:28:06;;;;;;;4.97;4.50;;;26.70;99.90;;;;;;6249607;27;88685;-68
2023/08/26 06:31:08;;;;;;;4.72;4.18;;;26.80;99.90;;;;;;6243505;28;87724;-67
2023/08/26 06:34:10;;;;;;;4.97;3.92;;;26.70;99.90;;;;;;6251154;28;89139;-68
2023/08/26 06:37:13;;;;;;;4.57;4.18;;;26.80;99.90;;;;;;6242000;28;89050;-67
2023/08/26 06:40:15;;;;;;;4.63;4.05;;;26.70;99.90;;;;;;6249204;28;90017;-67
2023/08/26 06:43:19;;;;;;;5.38;4.60;;;26.70;99.90;;;;;;6240168;28;88996;-68
2023/08/26 06:46:21;;;;;;;4.82;4.10;;;26.70;99.90;;;;;;6243389;28;89026;-68
2023/08/26 06:49:23;;;;;;;5.60;4.00;;;26.70;99.90;;;;;;6243852;27;89135;-68
2023/08/26 06:52:25;;;;;;;4.78;4.38;;;26.70;99.90;;;;;;6253435;27;89044;-67
2023/08/26 06:55:27;;;;;;;4.90;4.32;;;26.70;99.90;;;;;;6242834;28;89045;-67
2023/08/26 06:58:30;;;;;;;4.70;4.22;;;26.70;99.90;;;;;;6254724;28;89275;-67
2023/08/26 07:01:34;;;;;;;4.65;4.10;;;26.70;99.90;;;;;;6253814;28;86916;-67
2023/08/26 07:04:36;;;;;;;4.82;3.80;;;26.70;99.90;;;;;;6241235;28;87901;-67
2023/08/26 07:07:38;;;;;;;5.78;4.03;;;26.70;99.90;;;;;;6240506;28;89043;-67
2023/08/26 07:10:40;;;;;;;4.53;3.70;;;26.70;99.90;;;;;;6242242;28;90584;-67
2023/08/26 07:13:43;;;;;;;4.88;3.80;;;26.70;99.90;;;;;;6244819;27;89106;-67
2023/08/26 07:16:45;;;;;;;4.10;3.78;;;26.70;99.90;;;;;;6250150;27;89043;-68
2023/08/26 07:19:47;;;;;;;4.93;3.90;;;26.70;99.90;;;;;;6235189;28;89068;-67
2023/08/26 07:22:50;;;;;;;5.10;3.97;;;26.70;99.90;;;;;;6245277;28;89015;-68
2023/08/26 07:25:51;;;;;;;4.40;4.00;;;26.70;99.90;;;;;;6249566;27;89016;-68
2023/08/26 07:28:55;;;;;;;4.32;3.78;;;26.70;99.90;;;;;;6248115;27;89491;-68
2023/08/26 07:31:57;;;;;;;4.95;4.32;;;26.70;99.90;;;;;;6247317;28;88224;-68
2023/08/26 07:34:59;;;;;;;6.07;4.55;;;26.70;99.90;;;;;;6254509;28;88706;-68
2023/08/26 07:38:02;;;;;;;4.68;4.28;;;26.70;99.90;;;;;;6254897;27;89244;-68
2023/08/26 07:41:04;;;;;;;7.00;4.28;;;26.70;99.90;;;;;;6245134;28;90421;-68
2023/08/26 07:44:07;;;;;;;4.30;3.95;;;26.70;99.90;;;;;;6237672;28;88989;-68
2023/08/26 07:47:09;;;;;;;4.78;4.38;;;26.70;99.90;;;;;;6248975;28;89095;-68
2023/08/26 07:50:11;;;;;;;4.68;3.92;;;26.70;99.90;;;;;;6247855;28;89101;-68
2023/08/26 07:53:13;;;;;;;4.75;4.32;;;26.70;99.90;;;;;;6241343;28;89132;-68
2023/08/26 07:56:15;;;;;;;4.95;4.55;;;26.70;99.90;;;;;;6239862;28;89036;-68
2023/08/26 07:59:18;;;;;;;5.32;4.78;;;26.70;99.90;;;;;;6243969;28;89502;-68
2023/08/26 08:02:20;;;;;;;4.90;4.50;;;26.70;99.90;;;;;;6242647;28;88213;-68
2023/08/26 08:05:22;;;;;;;6.38;4.70;;;26.70;99.90;;;;;;6247361;28;89014;-68
2023/08/26 08:08:25;;;;;;;5.85;5.10;;;26.70;99.90;;;;;;6237239;28;89036;-69
2023/08/26 08:11:26;;;;;;;5.28;4.78;;;26.70;99.90;;;;;;6250814;28;90366;-68
2023/08/26 08:14:31;;;;;;;5.30;4.80;;;26.70;99.90;;;;;;6241773;27;89100;-68
2023/08/26 08:17:33;;;;;;;5.45;4.88;;;26.70;99.90;;;;;;6234625;28;89527;-68
2023/08/26 08:20:35;;;;;;;6.03;5.35;;;26.70;99.90;;;;;;6245192;28;89045;-68
2023/08/26 08:23:38;;;;;;;5.63;5.13;;;26.70;99.90;;;;;;6254469;28;89070;-68
2023/08/26 08:26:43;;;;;;;6.20;5.60;;;26.70;99.90;;;;;;6235657;27;89408;-68
2023/08/26 08:29:47;;;;;;;5.85;5.18;;;26.70;99.90;;;;;;6247403;28;89255;-68
2023/08/26 08:32:49;;;;;;;6.97;5.47;;;26.70;99.90;;;;;;6252636;28;88434;-68
2023/08/26 08:35:51;;;;;;;5.38;4.88;;;26.70;99.90;;;;;;6244992;28;88946;-68
2023/08/26 08:38:53;;;;;;;5.60;5.03;;;26.70;99.90;;;;;;6242348;28;89035;-68
2023/08/26 08:41:55;;;;;;;6.03;5.00;;;26.70;99.90;;;;;;6246287;27;90026;-68
2023/08/26 08:44:59;;;;;;;6.72;5.00;;;26.70;99.90;;;;;;6241628;28;89162;-68
2023/08/26 08:48:01;;;;;;;5.82;5.20;;;26.70;99.90;;;;;;6247866;28;87948;-68
2023/08/26 08:51:04;;;;;;;5.70;5.05;;;26.70;99.90;;;;;;6239030;28;88005;-68
2023/08/26 08:54:07;;;;;;;5.90;5.00;;;26.70;99.90;;;;;;6243038;28;89192;-68
2023/08/26 08:57:13;;;;;;;5.68;5.13;;;26.70;99.90;;;;;;6246758;28;89590;-67
2023/08/26 09:00:18;;;;;;;5.80;5.00;;;26.70;99.90;;;;;;6239110;28;89334;-68
2023/08/26 09:03:23;;;;;;;4.88;4.47;;;26.70;99.90;;;;;;6243414;28;88784;-68
2023/08/26 09:06:26;;;;;;;5.30;4.80;;;26.80;99.90;;;;;;6249009;28;88979;-68
2023/08/26 09:09:28;;;;;;;5.45;4.50;;;26.70;99.90;;;;;;6246488;28;89115;-67
2023/08/26 09:12:31;;;;;;;4.82;4.32;;;26.70;99.90;;;;;;6248280;28;89916;-68
2023/08/26 09:15:34;;;;;;;5.53;4.75;;;26.70;99.90;;;;;;6240218;28;89267;-68
2023/08/26 09:18:40;;;;;;;5.20;4.70;;;26.70;99.90;;;;;;6239959;28;89406;-68
2023/08/26 09:21:42;;;;;;;4.80;4.40;;;26.80;99.90;;;;;;6236414;28;89074;-68
2023/08/26 09:24:45;;;;;;;4.82;4.32;;;26.70;99.90;;;;;;6244091;28;88985;-68
2023/08/26 09:27:47;;;;;;;5.38;4.60;;;26.80;99.90;;;;;;6246754;28;87953;-68
2023/08/26 09:31:04;;;;;;;5.35;4.43;;;26.70;99.90;;;;;;6250717;28;88972;-68
2023/08/26 09:34:06;;;;;;;4.88;4.32;;;26.70;99.90;;;;;;6248000;27;88258;-68
2023/08/26 09:37:09;;;;;;;4.50;4.10;;;26.80;99.90;;;;;;6252015;28;87963;-68
2023/08/26 09:40:14;;;;;;;4.50;4.10;;;26.80;99.90;;;;;;6243332;28;89120;-68
2023/08/26 09:43:16;;;;;;;5.15;4.05;;;26.80;99.90;;;;;;6241382;28;89864;-68
2023/08/26 09:46:20;;;;;;;4.30;3.83;;;26.70;99.90;;;;;;6246050;28;89371;-68
2023/08/26 09:49:22;;;;;;;4.22;3.85;;;26.80;99.90;;;;;;6240289;28;89014;-68
2023/08/26 09:52:24;;;;;;;5.13;4.32;;;26.80;99.90;;;;;;6242131;28;89097;-68
2023/08/26 09:55:27;;;;;;;5.00;4.50;;;26.80;99.90;;;;;;6245864;28;87990;-68
2023/08/26 09:58:29;;;;;;;4.20;3.80;;;26.80;99.90;;;;;;6247536;28;89392;-68
2023/08/26 10:01:34;;;;;;;4.38;4.00;;;26.80;99.90;;;;;;6234833;28;88300;-68
2023/08/26 10:04:38;;;;;;;4.57;4.18;;;26.80;99.90;;;;;;6236837;28;88369;-68
2023/08/26 10:07:41;;;;;;;4.88;3.85;;;26.80;99.90;;;;;;6242034;28;89183;-68
2023/08/26 10:10:50;;;;;;;4.43;3.97;;;26.80;99.90;;;;;;6239374;28;89070;-68
2023/08/26 10:13:56;;;;;;;4.10;3.70;;;26.80;99.90;;;;;;6236471;28;90084;-68
2023/08/26 10:17:02;;;;;;;4.40;3.92;;;26.80;99.90;;;;;;6239903;28;88263;-67
2023/08/26 10:20:07;;;;;;;4.40;3.88;;;26.80;99.90;;;;;;6245174;27;89306;-68
2023/08/26 10:23:11;;;;;;;3.90;3.60;;;26.80;99.90;;;;;;6251394;27;89185;-68
2023/08/26 10:26:14;;;;;;;4.03;3.63;;;26.80;99.90;;;;;;6255295;28;89174;-68
2023/08/26 10:29:17;;;;;;;4.35;3.95;;;26.80;99.90;;;;;;6252504;28;89771;-67
2023/08/26 10:32:22;;;;;;;4.43;3.92;;;26.90;99.90;;;;;;6256766;28;89058;-68
2023/08/26 10:35:25;;;;;;;4.30;3.90;;;26.80;99.90;;;;;;6246056;28;88386;-67
2023/08/26 10:38:28;;;;;;;3.60;3.30;;;26.80;99.90;;;;;;6242347;28;89420;-67
2023/08/26 10:41:31;;;;;;;4.00;3.70;;;26.80;99.90;;;;;;6240988;28;88096;-67
2023/08/26 10:44:38;;;;;;;3.80;3.50;;;26.80;99.90;;;;;;6253709;27;90233;-67
2023/08/26 10:47:44;;;;;;;3.40;3.10;;;26.80;99.90;;;;;;6238264;28;89981;-68
2023/08/26 10:50:59;;;;;;;4.07;3.75;;;26.80;99.90;;;;;;6245133;28;89671;-68
2023/08/26 10:54:03;;;;;;;4.10;3.35;;;26.90;99.90;;;;;;6250126;28;89170;-67
2023/08/26 10:57:07;;;;;;;4.55;3.67;;;26.80;99.90;;;;;;6247976;28;89164;-68
2023/08/26 11:00:10;;;;;;;3.53;3.22;;;26.80;99.90;;;;;;6249108;28;89428;-67
2023/08/26 11:03:16;;;;;;;3.65;3.30;;;26.90;99.90;;;;;;6209623;28;89423;-68
2023/08/26 11:06:22;;;;;;;4.10;3.42;;;26.80;99.90;;;;;;6254955;27;88345;-67
2023/08/26 11:09:24;;;;;;;3.63;3.33;;;26.90;99.90;;;;;;6234452;28;89010;-68
2023/08/26 11:12:26;;;;;;;3.38;3.08;;;26.90;99.90;;;;;;6243223;28;89092;-68
2023/08/26 11:15:32;;;;;;;3.40;3.20;;;26.80;99.90;;;;;;6253690;28;90078;-68
2023/08/26 11:18:37;;;;;;;3.78;3.45;;;26.80;99.90;;;;;;6253382;27;88955;-68
2023/08/26 11:21:39;;;;;;;3.70;3.40;;;26.90;99.90;;;;;;6253353;28;89115;-68
2023/08/26 11:24:47;;;;;;;3.50;3.20;;;26.80;99.90;;;;;;6244405;28;89059;-67
2023/08/26 11:27:49;;;;;;;3.63;3.33;;;26.80;99.90;;;;;;6247288;28;89456;-68
2023/08/26 11:30:51;;;;;;;3.75;3.45;;;26.80;99.90;;;;;;6252081;28;89108;-68
2023/08/26 11:33:56;;;;;;;3.78;3.47;;;26.90;99.90;;;;;;6239046;28;89035;-68
2023/08/26 11:36:58;;;;;;;3.80;3.45;;;26.90;99.90;;;;;;6247032;27;88446;-68
2023/08/26 11:40:00;;;;;;;3.63;3.33;;;26.90;99.90;;;;;;6253070;27;89152;-67
2023/08/26 11:43:06;;;;;;;3.75;3.22;;;26.90;99.90;;;;;;6244192;27;89130;-67
2023/08/26 11:46:10;;;;;;;4.28;3.63;;;26.90;99.90;;;;;;6246704;28;88882;-68
2023/08/26 11:49:16;;;;;;;3.97;3.58;;;26.90;99.90;;;;;;6241551;27;88992;-68
2023/08/26 11:52:19;;;;;;;3.85;3.45;;;26.80;99.90;;;;;;6237510;28;89167;-67
2023/08/26 11:55:21;;;;;;;3.60;3.30;;;26.90;99.90;;;;;;6234993;28;89342;-68
2023/08/26 11:58:23;;;;;;;3.70;3.38;;;26.90;99.90;;;;;;6248662;27;89047;-67
2023/08/26 12:01:26;;;;;;;3.47;3.17;;;26.90;99.90;;;;;;6246262;28;89017;-68
2023/08/26 12:04:29;;;;;;;3.50;3.10;;;26.90;99.90;;;;;;6252230;27;89160;-68
2023/08/26 12:07:31;;;;;;;3.65;3.33;;;26.90;99.90;;;;;;6244623;28;87524;-67
2023/08/26 12:10:33;;;;;;;3.83;3.45;;;26.90;99.90;;;;;;6241018;28;88940;-67
2023/08/26 12:13:39;;;;;;;3.63;3.33;;;26.90;99.90;;;;;;6250880;27;89222;-68
2023/08/26 12:16:41;;;;;;;3.72;3.13;;;26.90;99.90;;;;;;6255390;28;89938;-67
2023/08/26 12:19:45;;;;;;;3.92;3.47;;;26.90;99.90;;;;;;6244960;27;89518;-68
2023/08/26 12:22:47;;;;;;;3.80;3.50;;;26.80;99.90;;;;;;6249407;28;90497;-67
2023/08/26 12:25:50;;;;;;;3.90;3.60;;;26.90;99.90;;;;;;6235316;28;88919;-67
2023/08/26 12:28:54;;;;;;;3.53;3.10;;;26.90;99.90;;;;;;6243188;28;89112;-67
2023/08/26 12:31:56;;;;;;;4.70;3.40;;;26.90;99.90;;;;;;6244467;27;89073;-66
2023/08/26 12:34:59;;;;;;;5.45;3.42;;;26.90;99.90;;;;;;6245252;28;88014;-68
2023/08/26 12:38:03;;;;;;;5.30;3.70;;;26.90;99.90;;;;;;6241082;28;88361;-66
2023/08/26 12:41:05;;;;;;;3.88;3.58;;;26.90;99.90;;;;;;6245596;28;89079;-68
2023/08/26 12:44:07;;;;;;;3.83;3.33;;;26.90;99.90;;;;;;6255565;27;88026;-70
2023/08/26 12:47:09;;;;;;;3.92;3.33;;;26.90;99.90;;;;;;6244785;28;88929;-69
2023/08/26 12:50:13;;;;;;;5.38;3.60;;;26.90;99.90;;;;;;6246997;28;89186;-70
2023/08/26 12:53:14;;;;;;;3.40;3.10;;;26.90;99.90;;;;;;6238307;28;89071;-68
2023/08/26 12:56:16;;;;;;;3.67;3.20;;;26.90;99.90;;;;;;6245699;28;89094;-68
2023/08/26 12:59:18;;;;;;;3.97;3.20;;;26.90;99.90;;;;;;6243925;28;89103;-67
2023/08/26 13:02:20;;;;;;;4.25;3.78;;;26.90;99.90;;;;;;6253743;27;89396;-68
2023/08/26 13:05:24;;;;;;;3.90;3.50;;;26.90;99.90;;;;;;6247844;27;89045;-69
2023/08/26 13:08:26;;;;;;;4.15;3.75;;;26.90;99.90;;;;;;6255461;28;87373;-67
2023/08/26 13:11:27;;;;;;;3.63;3.28;;;26.90;99.90;;;;;;6247391;28;87952;-67
2023/08/26 13:14:30;;;;;;;3.40;3.10;;;26.90;99.90;;;;;;6249095;28;89209;-68
2023/08/26 13:17:31;;;;;;;4.25;3.50;;;26.90;99.90;;;;;;6239108;27;90114;-67
2023/08/26 13:20:35;;;;;;;3.70;3.38;;;26.90;99.90;;;;;;6237726;28;89276;-68
2023/08/26 13:23:37;;;;;;;4.60;3.92;;;27.00;99.90;;;;;;6239018;27;89030;-70
2023/08/26 13:26:39;;;;;;;6.15;4.65;;;27.00;99.90;;;;;;6235868;28;89045;-70
2023/08/26 13:29:41;;;;;;;4.88;4.47;;;27.00;99.90;;;;;;6243112;27;89496;-69
2023/08/26 13:32:43;;;;;;;7.93;4.78;;;27.00;99.90;;;;;;6246591;28;90179;-70
2023/08/26 13:35:46;;;;;;;5.63;4.70;;;27.00;99.90;;;;;;6239696;28;89068;-70
2023/08/26 13:38:48;;;;;;;5.15;4.38;;;27.00;99.90;;;;;;6247911;27;87404;-70
2023/08/26 13:41:50;;;;;;;4.65;4.18;;;27.00;99.90;;;;;;6245174;28;87971;-70
2023/08/26 13:44:52;;;;;;;7.05;4.70;;;27.00;99.90;;;;;;6241921;28;89022;-70
2023/08/26 13:47:54;;;;;;;7.28;4.68;;;27.00;99.90;;;;;;6246010;28;90102;-70
2023/08/26 13:50:58;;;;;;;6.53;5.03;;;27.00;99.90;;;;;;6235140;28;89186;-70
2023/08/26 13:54:00;;;;;;;8.23;5.28;;;27.00;99.90;;;;;;6247898;28;89067;-69
2023/08/26 13:57:02;;;;;;;9.38;5.80;;;27.00;99.90;;;;;;6245560;28;89031;-70
2023/08/26 14:00:05;;;;;;;9.20;5.50;;;27.10;99.90;;;;;;6242082;27;89206;-70
2023/08/26 14:03:07;;;;;;;9.82;5.50;;;27.10;99.90;;;;;;6250198;27;89063;-70
2023/08/26 14:06:10;;;;;;;7.50;4.70;;;27.00;99.90;;;;;;6244331;27;89226;-71
2023/08/26 14:09:12;;;;;;;7.43;4.75;;;27.00;99.90;;;;;;6245588;28;88433;-70
2023/08/26 14:12:14;;;;;;;7.32;4.88;;;27.00;99.90;;;;;;6240503;27;88065;-70
2023/08/26 14:15:16;;;;;;;7.80;5.07;;;27.10;99.90;;;;;;6250800;28;89222;-71
2023/08/26 14:18:18;;;;;;;8.75;4.97;;;27.10;99.90;;;;;;6244709;28;90240;-70
2023/08/26 14:21:22;;;;;;;7.10;4.38;;;27.00;99.90;;;;;;6246201;28;88638;-72
2023/08/26 14:24:24;;;;;;;8.85;5.05;;;27.10;99.90;;;;;;6249622;28;87885;-70
2023/08/26 14:30:45;;;;;;;7.78;5.03;;;27.10;99.90;;;;;;6242178;28;87326;-70
2023/08/26 14:33:47;;;;;;;9.52;5.13;;;27.10;99.90;;;;;;6234313;28;88737;-71
2023/08/26 14:36:51;;;;;;;8.40;4.65;;;27.10;99.90;;;;;;6243897;27;89032;-70
2023/08/26 14:39:53;;;;;;;7.82;4.80;;;27.10;99.90;;;;;;6247190;28;88420;-69
2023/08/26 14:42:55;;;;;;;7.97;4.70;;;27.00;99.90;;;;;;6237072;28;88321;-69
2023/08/26 14:45:57;;;;;;;9.00;5.13;;;27.10;99.90;;;;;;6238225;28;88877;-70
2023/08/26 14:48:59;;;;;;;7.45;4.88;;;27.10;99.90;;;;;;6244414;28;90259;-70
2023/08/26 14:52:03;;;;;;;7.03;4.82;;;27.10;99.90;;;;;;6244340;28;88722;-70
2023/08/26 14:55:06;;;;;;;6.53;4.78;;;27.10;99.90;;;;;;6234489;28;88971;-69
2023/08/26 14:58:10;;;;;;;7.18;4.78;;;27.10;99.90;;;;;;6243608;28;89158;-70
2023/08/26 15:01:13;;;;;;;7.63;4.80;;;27.20;99.90;;;;;;6233264;28;87885;-69
2023/08/26 15:04:16;;;;;;;6.05;4.53;;;27.10;99.90;;;;;;6248792;28;89335;-70
2023/08/26 15:07:19;;;;;;;7.65;4.72;;;27.10;99.90;;;;;;6250513;27;89401;-71
2023/08/26 15:10:21;;;;;;;6.13;4.70;;;27.10;99.90;;;;;;6253388;28;88427;-68
2023/08/26 15:13:23;;;;;;;7.05;4.97;;;27.10;99.90;;;;;;6246381;28;89525;-70
2023/08/26 15:16:25;;;;;;;7.43;4.90;;;27.20;99.90;;;;;;6243281;28;89372;-70
2023/08/26 15:19:27;;;;;;;6.72;4.97;;;27.10;99.90;;;;;;6252244;27;90052;-69
2023/08/26 15:22:30;;;;;;;7.00;5.07;;;27.20;99.90;;;;;;6236210;28;89093;-70
2023/08/26 15:25:32;;;;;;;12.70;6.03;;;27.20;99.90;;;;;;6249976;27;87951;-70
2023/08/26 15:28:34;;;;;;;11.27;6.78;;;27.20;99.90;;;;;;6248181;28;89078;-70
2023/08/26 15:31:36;;;;;;;81.35;33.55;;;27.20;99.90;;;;;;6248493;27;88980;-70
2023/08/26 15:34:39;;;;;;;29.00;12.63;;;27.20;99.90;;;;;;6247880;27;89314;-70
2023/08/26 15:37:42;;;;;;;7.78;5.30;;;27.20;99.90;;;;;;6240846;28;88998;-69
2023/08/26 15:40:51;;;;;;;5.32;3.78;;;27.10;99.90;;;;;;6247509;27;88591;-69
2023/08/26 15:43:53;;;;;;;5.43;3.58;;;27.10;99.90;;;;;;6250821;28;89400;-69
2023/08/26 15:46:56;;;;;;;3.80;3.50;;;27.00;99.90;;;;;;6248356;28;87891;-69
2023/08/26 15:49:57;;;;;;;4.15;3.40;;;27.00;99.90;;;;;;6242032;27;89463;-70
2023/08/26 15:53:01;;;;;;;3.78;3.20;;;26.90;99.90;;;;;;6241915;28;89034;-70